sensor_id;sensor_type;location;lat;lon;timestamp;pressure;altitude;pressure_sealevel;temperature;humidity
36014;BME280;22275;43.208;27.620;2023-04-10T19:36:37;101012.94;;;15.44;100.00
36014;BME280;22275;43.208;27.620;2023-04-10T19:39:04;101003.09;;;15.46;100.00
36014;BME280;22275;43.208;27.620;2023-04-10T19:41:33;101012.53;;;15.62;100.00
36014;BME280;22275;43.208;27.620;2023-04-10T19:44:01;101002.06;;;15.71;100.00
36014;BME280;22275;43.208;27.620;2023-04-10T19:46:30;100993.03;;;15.85;100.00
36014;BME280;22275;43.208;27.620;2023-04-10T19:48:58;100998.81;;;15.79;100.00
36014;BME280;22275;43.208;27.620;2023-04-10T19:51:26;100995.81;;;15.83;100.00
36014;BME280;22275;43.208;27.620;2023-04-10T19:53:54;100985.06;;;15.96;100.00
36014;BME280;22275;43.208;27.620;2023-04-10T19:56:23;100985.22;;;16.28;100.00
36014;BME280;22275;43.208;27.620;2023-04-10T19:58:51;100983.41;;;16.17;100.00
36014;BME280;22275;43.208;27.620;2023-04-10T20:01:19;100969.38;;;16.15;100.00
36014;BME280;22275;43.208;27.620;2023-04-10T20:03:48;100975.78;;;16.13;100.00
36014;BME280;22275;43.208;27.620;2023-04-10T20:06:16;100970.47;;;16.13;100.00
36014;BME280;22275;43.208;27.620;2023-04-10T20:08:43;100969.63;;;16.34;100.00
36014;BME280;22275;43.208;27.620;2023-04-10T20:11:12;100971.44;;;16.34;100.00
36014;BME280;22275;43.208;27.620;2023-04-10T20:13:39;100965.06;;;16.03;100.00
36014;BME280;22275;43.208;27.620;2023-04-10T20:16:07;100957.56;;;15.86;100.00
36014;BME280;22275;43.208;27.620;2023-04-10T20:18:35;100961.53;;;15.80;100.00
36014;BME280;22275;43.208;27.620;2023-04-10T20:21:03;100951.38;;;15.74;100.00
36014;BME280;22275;43.208;27.620;2023-04-10T20:23:33;100944.97;;;15.66;100.00
36014;BME280;22275;43.208;27.620;2023-04-10T20:26:00;100956.19;;;15.34;100.00
36014;BME280;22275;43.208;27.620;2023-04-10T20:28:29;100955.34;;;15.34;100.00
36014;BME280;22275;43.208;27.620;2023-04-10T20:30:57;100952.69;;;15.58;100.00
36014;BME280;22275;43.208;27.620;2023-04-10T20:33:25;100950.44;;;15.40;100.00
36014;BME280;22275;43.208;27.620;2023-04-10T20:35:52;100959.41;;;15.27;100.00
36014;BME280;22275;43.208;27.620;2023-04-10T20:38:20;100941.81;;;15.26;100.00
36014;BME280;22275;43.208;27.620;2023-04-10T20:40:47;100934.25;;;15.32;100.00
36014;BME280;22275;43.208;27.620;2023-04-10T20:43:14;100929.28;;;15.39;100.00
36014;BME280;22275;43.208;27.620;2023-04-10T20:45:44;100934.44;;;15.18;100.00
36014;BME280;22275;43.208;27.620;2023-04-10T20:48:12;100925.50;;;15.19;100.00
36014;BME280;22275;43.208;27.620;2023-04-10T20:50:41;100930.50;;;15.00;100.00
36014;BME280;22275;43.208;27.620;2023-04-10T20:53:09;100927.72;;;15.02;100.00
36014;BME280;22275;43.208;27.620;2023-04-10T20:55:37;100921.47;;;15.37;100.00
36014;BME280;22275;43.208;27.620;2023-04-10T20:58:05;100918.41;;;15.55;100.00
36014;BME280;22275;43.208;27.620;2023-04-10T21:00:33;100905.63;;;15.71;100.00
36014;BME280;22275;43.208;27.620;2023-04-10T21:03:02;100903.34;;;15.31;100.00
36014;BME280;22275;43.208;27.620;2023-04-10T21:05:30;100909.44;;;15.56;100.00
36014;BME280;22275;43.208;27.620;2023-04-10T21:07:57;100902.47;;;15.77;100.00
36014;BME280;22275;43.208;27.620;2023-04-10T21:10:25;100907.69;;;16.12;100.00
36014;BME280;22275;43.208;27.620;2023-04-10T21:12:52;100897.63;;;16.37;100.00
36014;BME280;22275;43.208;27.620;2023-04-10T21:15:19;100900.03;;;16.18;100.00
36014;BME280;22275;43.208;27.620;2023-04-10T21:17:47;100884.84;;;15.98;100.00
36014;BME280;22275;43.208;27.620;2023-04-10T21:20:16;100891.59;;;15.46;100.00
36014;BME280;22275;43.208;27.620;2023-04-10T21:22:46;100894.38;;;15.21;100.00
36014;BME280;22275;43.208;27.620;2023-04-10T21:25:16;100888.41;;;14.95;100.00
36014;BME280;22275;43.208;27.620;2023-04-10T21:27:44;100887.88;;;15.14;100.00
36014;BME280;22275;43.208;27.620;2023-04-10T21:30:12;100874.84;;;15.22;100.00
36014;BME280;22275;43.208;27.620;2023-04-10T21:32:39;100875.34;;;15.27;100.00
36014;BME280;22275;43.208;27.620;2023-04-10T21:35:07;100887.16;;;15.23;100.00
36014;BME280;22275;43.208;27.620;2023-04-10T21:37:36;100893.28;;;15.13;100.00
36014;BME280;22275;43.208;27.620;2023-04-10T21:40:05;100879.97;;;15.02;100.00
36014;BME280;22275;43.208;27.620;2023-04-10T21:42:39;100880.84;;;15.13;100.00
36014;BME280;22275;43.208;27.620;2023-04-10T21:45:07;100877.97;;;15.16;100.00
36014;BME280;22275;43.208;27.620;2023-04-10T21:47:34;100874.25;;;15.30;100.00
36014;BME280;22275;43.208;27.620;2023-04-10T21:50:01;100873.94;;;15.34;100.00
36014;BME280;22275;43.208;27.620;2023-04-10T21:52:29;100864.56;;;15.52;100.00
36014;BME280;22275;43.208;27.620;2023-04-10T21:55:01;100870.44;;;15.45;100.00
36014;BME280;22275;43.208;27.620;2023-04-10T21:57:29;100864.56;;;15.86;100.00
36014;BME280;22275;43.208;27.620;2023-04-10T21:59:56;100867.44;;;16.16;100.00
36014;BME280;22275;43.208;27.620;2023-04-10T22:02:24;100858.88;;;16.01;100.00
36014;BME280;22275;43.208;27.620;2023-04-10T22:04:51;100861.19;;;15.84;100.00
36014;BME280;22275;43.208;27.620;2023-04-10T22:07:18;100850.56;;;16.06;100.00
36014;BME280;22275;43.208;27.620;2023-04-10T22:09:46;100844.84;;;16.10;100.00
36014;BME280;22275;43.208;27.620;2023-04-10T22:12:15;100854.44;;;15.80;100.00
36014;BME280;22275;43.208;27.620;2023-04-10T22:14:43;100851.41;;;15.62;100.00
36014;BME280;22275;43.208;27.620;2023-04-10T22:17:11;100849.34;;;15.43;100.00
36014;BME280;22275;43.208;27.620;2023-04-10T22:19:38;100840.81;;;15.16;100.00
36014;BME280;22275;43.208;27.620;2023-04-10T22:22:06;100834.06;;;15.01;100.00
36014;BME280;22275;43.208;27.620;2023-04-10T22:24:33;100842.78;;;15.25;100.00
36014;BME280;22275;43.208;27.620;2023-04-10T22:27:01;100837.22;;;15.17;100.00
36014;BME280;22275;43.208;27.620;2023-04-10T22:29:32;100832.66;;;15.30;100.00
36014;BME280;22275;43.208;27.620;2023-04-10T22:31:59;100835.78;;;15.24;100.00
36014;BME280;22275;43.208;27.620;2023-04-10T22:34:27;100834.38;;;15.65;100.00
36014;BME280;22275;43.208;27.620;2023-04-10T22:36:54;100824.00;;;15.73;100.00
36014;BME280;22275;43.208;27.620;2023-04-10T22:39:22;100815.56;;;15.79;100.00
36014;BME280;22275;43.208;27.620;2023-04-10T22:41:49;100806.88;;;15.43;100.00
36014;BME280;22275;43.208;27.620;2023-04-10T22:44:16;100807.38;;;15.60;100.00
36014;BME280;22275;43.208;27.620;2023-04-10T22:46:45;100804.94;;;15.57;100.00
36014;BME280;22275;43.208;27.620;2023-04-10T22:49:12;100811.19;;;15.33;100.00
36014;BME280;22275;43.208;27.620;2023-04-10T22:51:42;100803.84;;;15.70;100.00
36014;BME280;22275;43.208;27.620;2023-04-10T22:54:10;100810.50;;;15.53;100.00
36014;BME280;22275;43.208;27.620;2023-04-10T22:56:38;100805.19;;;15.65;100.00
36014;BME280;22275;43.208;27.620;2023-04-10T22:59:05;100814.19;;;15.29;100.00
36014;BME280;22275;43.208;27.620;2023-04-10T23:01:33;100814.53;;;15.13;100.00
36014;BME280;22275;43.208;27.620;2023-04-10T23:04:02;100814.81;;;15.32;100.00
36014;BME280;22275;43.208;27.620;2023-04-10T23:06:30;100802.19;;;14.90;100.00
36014;BME280;22275;43.208;27.620;2023-04-10T23:08:58;100804.06;;;15.23;100.00
36014;BME280;22275;43.208;27.620;2023-04-10T23:11:25;100802.50;;;15.31;100.00
36014;BME280;22275;43.208;27.620;2023-04-10T23:13:53;100798.81;;;14.99;100.00
36014;BME280;22275;43.208;27.620;2023-04-10T23:16:20;100792.56;;;14.89;100.00
36014;BME280;22275;43.208;27.620;2023-04-10T23:18:48;100787.53;;;15.19;100.00
36014;BME280;22275;43.208;27.620;2023-04-10T23:21:17;100781.75;;;15.36;100.00
36014;BME280;22275;43.208;27.620;2023-04-10T23:23:45;100784.38;;;15.03;100.00
36014;BME280;22275;43.208;27.620;2023-04-10T23:26:12;100774.03;;;15.44;100.00
36014;BME280;22275;43.208;27.620;2023-04-10T23:28:40;100776.66;;;15.00;100.00
36014;BME280;22275;43.208;27.620;2023-04-10T23:31:07;100772.56;;;15.07;100.00
36014;BME280;22275;43.208;27.620;2023-04-10T23:33:36;100776.28;;;14.93;100.00
36014;BME280;22275;43.208;27.620;2023-04-10T23:36:04;100771.97;;;15.70;100.00
36014;BME280;22275;43.208;27.620;2023-04-10T23:38:34;100770.91;;;15.50;100.00
36014;BME280;22275;43.208;27.620;2023-04-10T23:41:01;100767.75;;;15.12;100.00
36014;BME280;22275;43.208;27.620;2023-04-10T23:43:29;100760.03;;;15.31;100.00
36014;BME280;22275;43.208;27.620;2023-04-10T23:45:56;100757.13;;;15.01;100.00
36014;BME280;22275;43.208;27.620;2023-04-10T23:48:23;100753.53;;;14.67;100.00
36014;BME280;22275;43.208;27.620;2023-04-10T23:50:51;100744.13;;;15.31;100.00
36014;BME280;22275;43.208;27.620;2023-04-10T23:53:27;100739.06;;;15.06;100.00
36014;BME280;22275;43.208;27.620;2023-04-10T23:55:56;100737.34;;;15.38;100.00
36014;BME280;22275;43.208;27.620;2023-04-10T23:58:24;100741.09;;;15.14;100.00
